GMT,Max TemperatureF,Mean TemperatureF,Min TemperatureF,Max Dew PointF,MeanDew PointF,Min DewpointF,Max Humidity, Mean Humidity, Min Humidity, Max Sea Level PressureIn, Mean Sea Level PressureIn, Min Sea Level PressureIn, Max VisibilityMiles, Mean VisibilityMiles, Min VisibilityMiles, Max Wind SpeedMPH, Mean Wind SpeedMPH, Max Gust SpeedMPH,PrecipitationIn, CloudCover, Events, WindDirDegrees
2012-10-1,60,58,55,54,53,50,94,83,72,29.89,29.84,29.80,17,7,5,30,18,,0.12,5,Rain,246
2012-10-2,59,56,53,55,52,46,94,81,70,29.84,29.71,29.59,12,6,2,39,28,52,0.39,5,Rain,237
2012-10-3,58,54,50,48,46,45,82,71,55,29.68,29.65,29.62,18,8,6,26,20,,0.03,3,,262
2012-10-4,57,47,37,54,47,37,100,83,63,29.82,29.72,29.62,18,8,3,32,12,,0.01,4,,259
2012-10-5,55,52,48,52,48,46,100,86,67,29.83,29.73,29.56,19,6,2,16,9,,0.12,7,,281
2012-10-6,60,50,40,48,45,39,100,84,45,30.06,29.93,29.80,17,7,6,14,6,,0.00,4,,34
2012-10-7,57,47,37,48,45,36,100,84,62,30.20,30.13,30.04,19,8,6,10,5,,0.00,6,,87
2012-10-8,57,54,51,55,53,48,100,92,73,30.04,29.92,29.86,19,6,2,13,9,,0.04,7,,70
2012-10-9,56,54,51,53,51,48,98,91,80,30.00,29.97,29.95,8,4,1,9,5,,0.04,7,Rain,76
2012-10-10,56,53,50,54,51,50,100,92,79,29.97,29.89,29.74,11,5,1,20,8,31,0.02,7,,107
2012-10-11,59,55,51,59,54,46,100,94,80,29.73,29.56,29.44,12,4,1,26,17,29,0.59,6,,118
2012-10-12,55,50,46,45,44,41,87,73,54,29.78,29.73,29.65,17,8,4,25,19,,0.02,3,Rain,274
2012-10-13,54,44,35,46,40,34,100,84,52,29.71,29.69,29.65,19,7,1,17,6,,0.00,4,,346
2012-10-14,53,42,30,46,40,30,100,88,64,29.67,29.64,29.62,19,8,6,13,5,,0.02,4,,29
2012-10-15,55,46,38,54,47,39,100,92,75,29.65,29.53,29.27,19,6,1,26,9,,0.31,5,Rain,235
2012-10-16,57,54,51,48,45,41,88,72,52,29.61,29.50,29.39,16,7,5,38,22,51,0.00,3,,244
2012-10-17,59,54,50,52,49,46,94,77,61,29.34,29.27,29.18,16,6,3,43,25,33,0.02,5,Rain,180
2012-10-18,59,54,49,52,50,46,88,79,66,29.62,29.43,29.27,11,6,4,40,31,50,0.00,3,,200
2012-10-19,58,53,48,52,50,46,94,86,71,29.83,29.74,29.65,19,8,4,20,12,,0.01,4,,166
2012-10-20,59,54,48,54,51,48,94,85,75,30.05,29.95,29.83,19,8,6,18,12,,0.00,4,,191
2012-10-21,61,51,41,48,45,39,100,81,43,30.09,30.06,30.04,19,8,6,10,8,,0.00,3,,74
2012-10-22,58,50,42,54,51,48,94,88,76,30.21,30.12,30.06,19,8,6,9,6,,0.00,8,,54
2012-10-23,59,57,55,56,55,54,100,92,88,30.28,30.23,30.21,14,6,2,8,4,,0.00,7,,66
2012-10-24,60,56,51,54,53,50,94,87,72,30.22,30.10,30.01,14,6,3,9,6,,0.00,7,,58
2012-10-25,57,52,48,52,49,45,94,84,74,30.02,29.98,29.95,16,7,6,16,10,,0.00,7,,57
2012-10-26,50,46,39,43,37,30,88,73,50,30.04,29.97,29.92,19,8,5,21,14,,0.00,5,,44
2012-10-27,49,40,31,37,31,26,87,69,43,30.26,30.18,30.04,18,7,6,24,12,,0.00,4,,7
2012-10-28,51,48,44,46,44,37,93,81,65,30.21,29.97,29.77,19,8,6,31,18,,0.08,6,,269
2012-10-29,54,46,39,50,46,37,95,89,79,29.82,29.76,29.71,19,7,4,25,12,,0.16,5,Rain,287
2012-10-30,46,42,37,42,40,37,100,89,73,29.80,29.76,29.74,19,8,5,13,5,,0.00,3,,318
2012-10-31,53,48,42,47,42,39,93,82,70,29.03,28.90,28.82,10,6,4,39,19,,0.47,5,,195